Create Custom Reports and Graphics: Custom Report

Upper Lake (UPL)

Current Conditions

8/19/19 5:00 AM (-07:00)
Updated Every 15 Minutes
Temp 54.7 °F   1.5
Canopy Temp 55.9 °F   0.9
RH 100 %   0
Dew Pt 54.8 °F   1.5
Wet Bulb 54.7 °F   1.5
Wind Dir ENE | 58 °
Wind Spd 0.7 mph   0.3
Wind Gust 2.2 mph   0.8
Daily Min Temp 54.5 °F   1.6
Daily Max Temp 59.5 °F   2.1
Latest Rain 0.00 In
Daily Rain 0.00 In

Upper Lake

Last 24 Hours

Hourly Data | America/Los_Angeles
as of 8/19/19 5:28 AM PDT
Date & Time Temp (°F) Canopy Temp (°F) RH (%) Dew Pt (°F) Wet Bulb (°F) Leaf Wet (mins) Wind Gst Dir (°) Wind Spd (mph) Wind Gust (mph) Latest Rain (In) Daily Rain (In) Daily Min Temp (°F) Daily Max Temp (°F) Daily Min CanT (°F) Daily Max CanT (°F)
8/19/19 - 0500 55.2 56.0 100 55.2 55.2 60.0 ENE | 61 0.6 3.2 0.00 0.00 54.5 59.5 55.7 60.1
8/19/19 - 0400 56.6 57.2 100 56.6 56.6 60.0 NE | 48 0.3 2.0 0.00 0.00 55.8 59.5 56.6 60.1
8/19/19 - 0300 57.9 58.5 100 57.9 57.9 60.0 NNE | 17 0.6 2.8 0.00 0.00 57.1 59.5 57.8 60.1
8/19/19 - 0200 58.8 59.4 100 58.8 58.8 60.0 NNE | 14 0.2 2.1 0.00 0.00 57.9 59.5 58.8 60.1
8/19/19 - 0100 60.1 60.5 100 60.0 60.1 31.5 NW | 324 0.0 0.8 0.00 0.00 53.9 89.5 54.6 86.8
8/19/19 - 0000 62.1 62.3 97 61.1 62.1 0.0 NW | 326 0.1 1.5 0.00 0.00 53.9 89.5 54.6 86.8
8/18/19 - 2300 64.4 64.5 88 60.8 63.6 0.0 WNW | 302 0.2 1.4 0.00 0.00 53.9 89.5 54.6 86.8
8/18/19 - 2200 68.0 67.6 71 58.4 63.0 0.0 W | 276 0.6 3.7 0.00 0.00 53.9 89.5 54.6 86.8
8/18/19 - 2100 71.8 70.7 61 57.4 63.2 0.0 NW | 322 1.5 7.6 0.00 0.00 53.9 89.5 54.6 86.8
8/18/19 - 2000 75.2 73.9 54 57.4 64.0 0.0 W | 278 2.2 9.0 0.00 0.00 53.9 89.5 54.6 86.8
8/18/19 - 1900 79.8 77.0 49 59.2 66.1 0.0 W | 266 2.6 9.2 0.00 0.00 53.9 89.5 54.6 86.8
8/18/19 - 1800 84.1 80.3 44 59.7 67.1 0.0 S | 184 2.6 9.5 0.00 0.00 53.9 89.5 54.6 86.8
8/18/19 - 1700 86.3 84.1 36 56.5 65.4 0.0 SSE | 161 5.7 13.6 0.00 0.00 53.9 89.5 54.6 86.8
8/18/19 - 1600 88.3 85.2 32 54.8 64.7 0.0 S | 175 3.9 11.0 0.00 0.00 53.9 89.5 54.6 86.8
8/18/19 - 1500 87.2 84.9 31 52.4 63.2 0.0 SE | 142 4.9 10.2 0.00 0.00 53.9 88.2 54.6 86.5
8/18/19 - 1400 85.3 81.6 40 58.5 66.5 0.0 SSE | 154 4.0 10.2 0.00 0.00 53.9 86.2 54.6 83.4
8/18/19 - 1300 82.3 79.8 49 61.1 67.8 0.0 SSE | 164 4.0 9.2 0.00 0.00 53.9 84.5 54.6 80.9
8/18/19 - 1200 80.6 77.7 54 62.3 68.4 0.0 S | 180 3.0 7.5 0.00 0.00 53.9 81.9 54.6 79.2
8/18/19 - 1100 77.6 75.0 58 61.8 67.6 0.0 SSE | 156 2.4 6.0 0.00 0.00 53.9 80.3 54.6 76.9
8/18/19 - 1000 75.4 71.5 57 59.0 65.2 0.0 SSW | 200 2.1 5.0 0.00 0.00 53.9 77.3 54.6 73.8
8/18/19 - 0900 70.2 66.0 70 59.8 64.6 0.0 WSW | 251 1.0 3.8 0.00 0.00 53.9 74.3 54.6 68.4
8/18/19 - 0800 59.1 59.0 98 58.4 58.9 59.3 NW | 314 0.2 1.4 0.00 0.00 53.9 65.6 54.6 63.8
8/18/19 - 0700 54.4 55.0 100 54.4 54.4 60.0 NE | 37 0.2 2.2 0.00 0.00 53.9 61.7 54.6 62.0
8/18/19 - 0600 55.6 56.2 100 55.6 55.6 60.0 NW | 316 0.2 1.4 0.00 0.00 54.8 61.7 55.4 62.0
8/18/19 - 0500 56.5 57.2 100 56.6 56.5 60.0 NW | 317 0.2 1.4 0.00 0.00 56.1 61.7 56.6 62.0
Max 88.3 85.2 100 62.3 68.4 60.0 - 5.7 13.6 0.00 0.00 57.9 89.5 58.8 86.8
Avg 70.1 68.8 72 58.1 62.3 20.4 - 1.7 5.4 0.00 - - - - -
Min 54.4 55.0 31 52.4 54.4 0.0 - 0.0 0.8 0.00 0.00 53.9 59.5 54.6 60.1
Total - - - - - - - - - 0.00 - - - - -

Upper Lake Daily Summaries

Last 30 Days

Daily Data | America/Los_Angeles
as of 8/19/19 5:28 AM PDT
Date Daily Max Temp (°F) Max Temp Time Daily Min Temp (°F) Min Temp Time Daily Rain (In) Seasonal Rainfall (In) Wind Spd (mph) Daily Max Wind (mph) Max Wind Time Max Wind Dir (°) Dew Pt (°F) Max RH (%) Min RH (%) Chill Hrs <=45 (hrs) Chill Hrs Seas (hrs) Hrs <= 32F (hrs) Hrs <= 28F (hrs) GDDs (DL) Seas GDDs (DL) Leaf Wet (hrs) Daily Max CanT (°F) Daily Min CanT (°F) Hrs 70-85F (hrs) Hrs > 95F (hrs) Powdery Mildew Stress (pts) Degree Hrs (hrs) Bat Volt Min Day (V)
8/18/19 89.5 1525 53.9 0657 0.00 0.04 1.8 13.6 1625 SSE | 161 58.5 100 23 0.0 1,717.0 0.0 0.0 20.92 2,239 7.4 86.8 54.6 5.29 0.00 40 165.4 12.20
8/17/19 94.2 1639 55.0 0629 0.00 0.04 1.8 11.3 1920 W | 277 57.7 100 25 0.0 1,717.0 0.0 0.0 24.13 2,218 1.4 91.2 55.5 3.84 0.00 50 232.3 12.20
8/16/19 98.3 1548 57.5 0650 0.00 0.04 1.5 14.5 1646 NNW | 332 58.9 100 19 0.0 1,717.0 0.0 0.0 27.16 2,194 2.4 93.4 57.9 3.07 2.27 60 259.6 12.20
8/15/19 98.2 1525 57.5 0621 0.00 0.04 1.3 11.8 1605 NNW | 330 61.3 100 20 0.0 1,717.0 0.0 0.0 27.32 2,167 4.5 93.6 57.3 3.43 3.64 70 250.7 12.21
8/14/19 96.4 1549 54.9 0533 0.00 0.04 1.6 12.3 1658 NW | 315 59.2 100 22 0.0 1,717.0 0.0 0.0 25.05 2,140 2.7 91.2 55.3 3.65 0.72 80 219.5 12.21
8/13/19 94.5 1613 52.7 0629 0.00 0.04 1.4 11.0 1829 W | 265 55.9 100 24 0.0 1,717.0 0.0 0.0 23.36 2,115 3.9 89.6 53.0 4.25 0.00 90 214.9 12.20
8/12/19 90.4 1503 49.7 0634 0.00 0.04 1.6 12.2 1629 NW | 326 54.3 100 16 0.0 1,717.0 0.0 0.0 20.43 2,091 5.3 86.3 50.5 6.29 0.00 100 175.4 12.20
8/11/19 86.3 1613 48.0 0640 0.00 0.04 1.8 13.8 1725 W | 275 52.1 100 21 0.0 1,717.0 0.0 0.0 17.90 2,071 6.3 83.2 49.1 10.34 0.00 100 129.6 12.21
8/10/19 78.9 1506 51.4 0632 0.00 0.04 2.0 14.9 1103 NW | 314 55.3 100 36 0.0 1,717.0 0.0 0.0 15.86 2,053 1.2 76.6 52.2 6.67 0.00 80 67.1 12.17
8/9/19 82.5 1541 54.3 0306 0.00 0.04 2.3 14.5 1852 NNW | 330 54.3 99 32 0.0 1,717.0 0.0 0.0 16.78 2,037 0.1 80.4 54.7 7.11 0.00 60 84.6 12.19
8/8/19 81.3 1531 50.8 0548 0.00 0.04 2.7 17.9 1759 NW | 304 54.4 100 30 0.0 1,717.0 0.0 0.0 14.79 2,020 0.7 78.4 51.1 6.18 0.00 40 68.6 12.18
8/7/19 90.4 1451 52.2 0615 0.01 0.04 2.2 13.8 1734 W | 277 55.8 100 17 0.0 1,717.0 0.0 0.0 20.80 2,006 6.6 85.6 52.1 6.06 0.00 20 167.4 12.18
8/6/19 94.1 1556 58.0 0337 0.00 0.03 1.6 10.4 1502 SSE | 163 59.4 100 16 0.0 1,717.0 0.0 0.0 23.95 1,985 5.8 90.3 58.6 4.08 0.00 0 197.1 12.21
8/5/19 94.6 1602 54.9 0613 0.00 0.03 1.3 9.1 1409 SSE | 156 60.0 100 22 0.0 1,717.0 0.0 0.0 24.01 1,961 5.1 90.4 55.7 4.06 0.00 0 223.2 12.19
8/4/19 94.0 1642 53.6 0624 0.00 0.03 1.8 10.4 1821 WSW | 250 58.1 100 23 0.0 1,717.0 0.0 0.0 23.81 1,937 4.4 91.5 54.3 3.98 0.00 0 231.2 12.21
8/3/19 95.0 1556 53.7 0623 0.00 0.03 1.9 13.8 1750 WNW | 301 56.1 100 20 0.0 1,717.0 0.0 0.0 24.09 1,913 3.7 91.4 54.0 3.95 0.00 0 236.5 12.21
8/2/19 90.4 1501 53.9 0601 0.00 0.03 2.3 13.8 1624 WNW | 291 56.9 100 27 0.0 1,717.0 0.0 0.0 22.58 1,889 1.3 86.8 54.7 5.42 0.00 10 191.1 12.22
8/1/19 89.8 1336 55.8 0608 0.00 0.03 2.1 16.9 1730 NW | 310 57.1 100 15 0.0 1,717.0 0.0 0.0 22.94 1,866 2.2 86.5 56.0 6.09 0.00 20 195.0 12.19
7/31/19 92.6 1539 54.2 0632 0.00 0.03 1.9 12.2 1814 NW | 324 56.9 100 18 0.0 1,717.0 0.0 0.0 23.55 1,843 4.3 88.9 54.9 4.60 0.00 0 223.4 12.16
7/30/19 90.9 1704 51.4 0609 0.00 0.03 2.0 10.3 1534 SSE | 148 55.4 100 21 0.0 1,717.0 0.0 0.0 21.36 1,820 4.2 88.0 52.1 4.60 0.00 0 194.9 12.21
7/29/19 89.0 1502 56.2 0611 0.00 0.03 2.6 15.1 1854 SW | 228 56.8 99 30 0.0 1,717.0 0.0 0.0 22.28 1,798 0.0 85.8 56.6 5.77 0.00 0 182.0 12.21
7/28/19 97.3 1520 56.2 0635 0.01 0.03 1.5 12.2 1814 W | 266 58.8 100 19 0.0 1,717.0 0.0 0.0 26.68 1,776 3.3 92.8 56.2 3.21 2.02 0 251.4 12.21
7/27/19 97.5 1636 51.6 0608 0.02 0.02 1.7 14.9 1748 WSW | 242 55.8 100 12 0.0 1,717.0 0.0 0.0 25.40 1,749 0.0 92.5 52.3 5.31 1.13 0 240.1 12.16
7/26/19 96.6 1644 51.8 0508 0.00 0.00 1.6 11.8 1851 W | 262 50.0 100 10 0.0 1,717.0 0.0 0.0 23.16 1,724 0.0 93.4 52.6 3.24 0.36 0 240.2 12.18
7/25/19 95.4 1521 52.8 0555 0.00 0.00 1.2 9.2 1638 S | 186 53.8 99 13 0.0 1,717.0 0.0 0.0 22.02 1,701 0.0 92.8 53.7 4.00 0.11 10 207.7 12.20
7/24/19 97.1 1521 50.1 0548 0.00 0.00 1.6 10.2 1605 SSE | 161 48.7 100 5 0.0 1,717.0 0.0 0.0 23.56 1,679 0.0 92.9 50.9 3.26 1.83 20 255.4 12.21
7/23/19 93.0 1503 53.7 0551 0.00 0.00 1.7 12.4 1812 SW | 227 52.2 100 17 0.0 1,717.0 0.0 0.0 23.42 1,655 2.9 90.1 54.4 4.23 0.00 30 225.6 12.22
7/22/19 94.2 1519 55.6 0615 0.00 0.00 2.0 12.2 1740 W | 268 57.2 100 25 0.0 1,717.0 0.0 0.0 25.21 1,632 2.2 90.9 56.7 3.87 0.00 40 257.4 12.22
7/21/19 92.9 1728 56.6 0622 0.00 0.00 1.8 13.7 1852 W | 266 58.3 100 18 0.0 1,717.0 0.0 0.0 24.56 1,607 2.9 89.9 56.9 4.89 0.00 50 238.6 12.23
7/20/19 91.2 1540 57.4 0603 0.00 0.00 1.4 11.6 1720 WSW | 254 59.8 100 26 0.0 1,717.0 0.0 0.0 23.91 1,582 1.4 88.1 58.0 4.89 0.00 60 215.3 12.19
Max 98.3 - 58.0 - 0.02 - 2.7 17.9 - - 61.3 100 36 0.0 - 0.0 0.0 27.32 - 7.4 93.6 58.6 10.34 3.64 100 259.6 12.23
Avg - - - - - - 1.8 - - - 56.3 - - 0.0 - 0.0 0.0 22.70 - - - - 4.85 0.40 - - -
Min 78.9 - 48.0 - 0.00 - 1.2 9.1 - - 48.7 99 5 0.0 - 0.0 0.0 14.79 - 0.0 76.6 49.1 3.07 0.00 0 67.1 12.16
Total - - - - - - - - - - - - - 0.0 - 0.0 0.0 680.99 - - - - 145.62 12.09 - - -

Upper Lake Climate Summary

Current Year

Current Year | Showing 1/1/19 - 8/18/19
as of 8/19/19 5:28 AM PDT
Temperature (°F) Precip (in) Days
Month Days Avg Max Avg Min Max Max Min Min Total Daily Min Temp < 28 Daily Min Temp < 32 Daily Max Temp > 90 Daily Max Temp > 100 Daily Rain > 0.01 Daily Rain > 0.1
Jan 2019 31 57.8 36.4 71.8 24.8 9.44 3 9 0 0 11 11
Feb 2019 28 49.6 34 57.1 23 15.92 8 12 0 0 19 16
Mar 2019 31 59.4 37.1 74 27.9 6.68 1 4 0 0 15 11
Apr 2019 30 71.5 44.9 89.7 37.6 0.94 0 0 0 0 8 2
May 2019 31 73.7 44.5 86.5 35.8 3.63 0 0 0 0 9 5
Jun 2019 30 87.2 50.8 97 39.1 0.01 0 0 12 0 0 0
Jul 2019 31 89.9 53.2 97.5 47.9 0.03 0 0 17 0 1 0
Aug 2019 18 91 53.8 98.3 48 0.01 0 0 12 0 0 0
Total 230 - - - - 36.66 12 25 41 0 63 45
Average 28.8 72.5 44.3 - - 4.58 1.5 3.1 5.1 0 7.9 5.6
Maximum 31 91 53.8 98.3 - 15.92 8 12 17 0 19 16
Minimum 18 49.6 34 - 23 0.01 0 0 0 0 0 0

Upper Lake Climate Summary

Last Year

Last Year | Showing 1/1/18 - 12/31/18
as of 8/19/19 5:28 AM PDT
Temperature (°F) Precip (in) Days
Month Days Avg Max Avg Min Max Max Min Min Total Daily Min Temp < 28 Daily Min Temp < 32 Daily Max Temp > 90 Daily Max Temp > 100 Daily Rain > 0.01 Daily Rain > 0.1
Jan 2018 31 56.5 36.2 69.7 27.7 5.62 2 8 0 0 13 9
Feb 2018 28 62.4 29.1 78.7 20.6 0.9 13 19 0 0 3 2
Mar 2018 31 60.7 34 83.7 24.1 5.7 3 11 0 0 16 13
Apr 2018 30 69 39.5 84.5 30.2 4.78 0 1 0 0 8 5
May 2018 31 77.9 45.3 92.1 35.3 0.26 0 0 1 0 2 1
Jun 2018 30 86.3 47.6 97.4 37.7 0 0 0 11 0 0 0
Jul 2018 31 95.2 53.2 103.1 46.2 0 0 0 24 4 0 0
Aug 2018 31 90.9 50.3 97.2 46.6 0 0 0 18 0 0 0
Sep 2018 30 86.7 44.5 96.2 39.5 0 0 0 12 0 0 0
Oct 2018 31 77.7 40.7 85.6 31.9 1.25 0 1 0 0 4 3
Nov 2018 30 66.4 32.5 82.4 20.4 5.43 13 15 0 0 7 7
Dec 2018 31 55.2 33.6 63.7 26.1 3.34 4 14 0 0 12 7
Total 365 - - - - 27.28 35 69 66 4 65 47
Average 30.4 73.7 40.5 - - 2.27 2.9 5.8 5.5 0.3 5.4 3.9
Maximum 31 95.2 53.2 103.1 - 5.7 13 19 24 4 16 13
Minimum 28 55.2 29.1 - 20.4 0 0 0 0 0 0 0
Calm: 10.4%
Calm: 0.6%